createdAt,value
2018-10-17T00:00:21.216Z,68.21
2018-10-17T00:02:50.544Z,69.18
2018-10-17T00:05:20.002Z,68.79
2018-10-17T00:07:49.412Z,68.55
2018-10-17T00:10:18.769Z,69.29
2018-10-17T00:12:48.196Z,69.84
2018-10-17T00:15:17.594Z,69.55
2018-10-17T00:17:46.994Z,70.20
2018-10-17T00:20:16.543Z,69.59
2018-10-17T00:22:45.947Z,70.19
2018-10-17T00:25:16.359Z,70.13
2018-10-17T00:27:45.957Z,69.40
2018-10-17T00:30:15.400Z,70.06
2018-10-17T00:32:44.794Z,69.75
2018-10-17T00:35:14.200Z,69.49
2018-10-17T00:37:43.594Z,69.08
2018-10-17T00:40:13.014Z,69.79
2018-10-17T00:42:42.415Z,69.61
2018-10-17T00:45:11.933Z,69.77
2018-10-17T00:47:41.282Z,70.36
2018-10-17T00:50:10.934Z,70.32
2018-10-17T00:52:40.309Z,70.33
2018-10-17T00:55:10.636Z,70.34
2018-10-17T00:57:39.967Z,70.35
2018-10-17T01:00:09.437Z,69.77
2018-10-17T01:02:39.061Z,70.29
2018-10-17T01:05:08.459Z,70.70
2018-10-17T01:07:37.890Z,70.88
2018-10-17T01:10:07.301Z,69.93
2018-10-17T01:12:36.640Z,71.22
2018-10-17T01:15:06.249Z,71.14
2018-10-17T01:17:35.732Z,70.64
2018-10-17T01:20:06.627Z,70.68
2018-10-17T01:22:36.093Z,70.50
2018-10-17T01:25:06.087Z,70.15
2018-10-17T01:27:35.435Z,70.72
2018-10-17T01:30:05.569Z,70.82
2018-10-17T01:32:34.923Z,70.43
2018-10-17T01:35:04.391Z,70.77
2018-10-17T01:37:33.842Z,70.21
2018-10-17T01:40:03.274Z,70.34
2018-10-17T01:42:32.636Z,71.17
2018-10-17T01:45:02.085Z,70.07
2018-10-17T01:47:31.415Z,70.05
2018-10-17T01:50:00.837Z,71.02
2018-10-17T01:52:30.325Z,70.93
2018-10-17T01:54:59.667Z,70.45
2018-10-17T01:57:29.231Z,71.08
2018-10-17T01:59:58.604Z,71.82
2018-10-17T02:02:27.973Z,71.52
2018-10-17T02:04:57.413Z,71.12
2018-10-17T02:07:27.272Z,71.82
2018-10-17T02:09:56.766Z,72.05
2018-10-17T02:12:26.185Z,71.97
2018-10-17T02:14:55.792Z,71.53
2018-10-17T02:17:25.710Z,71.99
2018-10-17T02:19:55.319Z,72.36
2018-10-17T02:22:24.692Z,72.35
2018-10-17T02:24:54.029Z,72.46
2018-10-17T02:27:23.464Z,71.87
2018-10-17T02:29:52.971Z,72.54
2018-10-17T02:32:22.351Z,72.42
2018-10-17T02:34:57.079Z,73.07
2018-10-17T02:37:26.679Z,73.88
2018-10-17T02:39:56.825Z,73.48
2018-10-17T02:42:26.594Z,73.34
2018-10-17T02:44:56.130Z,73.50
2018-10-17T02:47:25.714Z,74.24
2018-10-17T02:49:55.665Z,73.91
2018-10-17T02:52:25.368Z,74.14
2018-10-17T02:54:55.309Z,74.00
2018-10-17T02:57:24.687Z,74.17
2018-10-17T02:59:54.136Z,74.54
2018-10-17T03:02:23.695Z,74.52
2018-10-17T03:04:53.108Z,74.17
2018-10-17T03:07:22.702Z,73.69
2018-10-17T03:09:52.211Z,74.41
2018-10-17T03:12:21.603Z,74.47
2018-10-17T03:14:51.130Z,74.01
2018-10-17T03:17:20.925Z,74.64
2018-10-17T03:19:50.327Z,74.28
2018-10-17T03:22:19.940Z,74.56
2018-10-17T03:24:49.411Z,75.11
2018-10-17T03:27:18.787Z,75.19
2018-10-17T03:29:48.249Z,74.85
2018-10-17T03:32:17.844Z,75.65
2018-10-17T03:34:47.261Z,75.91
2018-10-17T03:37:16.723Z,76.20
2018-10-17T03:39:47.245Z,76.35
2018-10-17T03:42:17.096Z,76.23
2018-10-17T03:44:46.489Z,76.08
2018-10-17T03:47:16.091Z,76.62
2018-10-17T03:49:45.497Z,76.68
2018-10-17T03:52:14.869Z,77.03
2018-10-17T03:54:44.260Z,76.28
2018-10-17T03:57:13.914Z,76.58
2018-10-17T03:59:43.471Z,76.50
2018-10-17T04:02:12.852Z,76.45
2018-10-17T04:04:42.853Z,76.39
2018-10-17T04:07:13.258Z,77.09
2018-10-17T04:09:42.767Z,76.30
2018-10-17T04:12:12.743Z,76.32
2018-10-17T04:14:42.161Z,75.95
2018-10-17T04:17:11.704Z,75.97
2018-10-17T04:19:41.349Z,75.71
2018-10-17T04:22:11.502Z,75.64
2018-10-17T04:24:40.979Z,76.45
2018-10-17T04:27:10.376Z,76.36
2018-10-17T04:29:40.055Z,76.42
2018-10-17T04:32:09.663Z,76.62
2018-10-17T04:34:39.227Z,77.21
2018-10-17T04:37:08.845Z,77.19
2018-10-17T04:39:38.780Z,76.81
2018-10-17T04:42:09.414Z,77.55
2018-10-17T04:44:38.920Z,77.81
2018-10-17T04:47:08.850Z,77.31
2018-10-17T04:49:38.332Z,77.26
2018-10-17T04:52:08.095Z,77.48
2018-10-17T04:54:38.369Z,77.46
2018-10-17T04:57:07.809Z,77.00
2018-10-17T04:59:37.317Z,77.56
2018-10-17T05:02:06.845Z,78.07
2018-10-17T05:04:36.453Z,77.79
2018-10-17T05:07:06.227Z,78.16
2018-10-17T05:09:35.656Z,79.03
2018-10-17T05:12:05.203Z,78.75
2018-10-17T05:14:34.629Z,79.22
2018-10-17T05:17:04.108Z,79.67
2018-10-17T05:19:33.696Z,80.04
2018-10-17T05:22:04.713Z,80.59
2018-10-17T05:24:34.245Z,79.89
2018-10-17T05:27:03.635Z,80.42
2018-10-17T05:29:33.031Z,80.58
2018-10-17T05:32:03.069Z,81.30
2018-10-17T05:34:32.474Z,80.36
2018-10-17T05:37:01.934Z,80.60
2018-10-17T05:39:31.469Z,81.47
2018-10-17T05:42:00.806Z,80.91
2018-10-17T05:44:30.165Z,81.71
2018-10-17T05:46:59.965Z,82.08
2018-10-17T05:49:29.384Z,82.92
2018-10-17T05:51:58.815Z,83.32
2018-10-17T05:54:28.297Z,84.39
2018-10-17T05:56:57.671Z,82.40
2018-10-17T05:59:27.052Z,82.57
2018-10-17T06:01:57.315Z,83.69
2018-10-17T06:04:26.665Z,83.51
2018-10-17T06:06:56.143Z,83.77
2018-10-17T06:09:25.977Z,83.75
2018-10-17T06:11:56.044Z,84.85
2018-10-17T06:14:25.500Z,84.33
2018-10-17T06:19:38.838Z,84.06
2018-10-17T06:22:08.480Z,84.49
2018-10-17T06:24:37.985Z,88.50
2018-10-17T06:27:07.432Z,83.49
2018-10-17T06:29:36.962Z,83.90
2018-10-17T06:32:06.656Z,83.12
2018-10-17T06:34:36.390Z,80.11
2018-10-17T06:37:06.483Z,80.51
2018-10-17T06:39:35.840Z,79.44
2018-10-17T06:42:05.962Z,80.23
2018-10-17T06:44:35.818Z,79.86
2018-10-17T06:47:05.505Z,79.49
2018-10-17T06:49:34.862Z,79.14
2018-10-17T06:52:04.487Z,84.14
2018-10-17T06:54:34.360Z,77.20
2018-10-17T06:57:03.712Z,74.48
2018-10-17T06:59:33.213Z,72.14
2018-10-17T07:02:02.629Z,74.39
2018-10-17T07:04:32.004Z,69.17
2018-10-17T07:07:01.541Z,68.79
2018-10-17T07:09:30.890Z,69.21
2018-10-17T07:12:00.271Z,67.66
2018-10-17T07:14:30.681Z,65.79
2018-10-17T07:17:00.934Z,67.19
2018-10-17T07:19:30.274Z,67.21
2018-10-17T07:21:59.917Z,68.52
2018-10-17T07:24:29.504Z,70.32
2018-10-17T07:26:58.950Z,70.48
2018-10-17T07:29:28.466Z,70.39
2018-10-17T07:31:57.718Z,72.27
2018-10-17T07:34:27.591Z,72.41
2018-10-17T07:36:57.034Z,72.62
2018-10-17T07:39:26.387Z,73.10
2018-10-17T07:41:56.031Z,72.81
2018-10-17T07:44:25.442Z,71.89
2018-10-17T07:46:54.952Z,72.44
2018-10-17T07:49:24.267Z,71.65
2018-10-17T07:51:53.649Z,71.99
2018-10-17T07:54:23.031Z,72.07
2018-10-17T07:56:52.462Z,70.75
2018-10-17T07:59:21.864Z,70.50
2018-10-17T08:01:51.235Z,70.72
2018-10-17T08:04:20.559Z,70.51
2018-10-17T08:06:50.055Z,69.83
2018-10-17T08:09:19.399Z,70.33
2018-10-17T08:11:48.987Z,69.23
2018-10-17T08:14:18.509Z,68.26
2018-10-17T08:16:47.779Z,67.14
2018-10-17T08:19:17.176Z,66.02
2018-10-17T08:21:47.611Z,67.44
2018-10-17T08:24:17.126Z,66.58
2018-10-17T08:26:46.448Z,64.89
2018-10-17T08:29:16.028Z,66.00
2018-10-17T08:31:45.559Z,63.63
2018-10-17T08:34:14.911Z,62.78
2018-10-17T08:36:44.618Z,62.72
2018-10-17T08:39:13.626Z,63.14
2018-10-17T08:41:42.989Z,63.00
2018-10-17T08:44:12.493Z,62.17
2018-10-17T08:46:41.764Z,61.47
2018-10-17T08:49:11.105Z,60.92
2018-10-17T08:51:40.540Z,60.30
2018-10-17T08:54:10.140Z,59.04
2018-10-17T08:56:39.517Z,58.69
2018-10-17T08:59:09.091Z,57.43
2018-10-17T09:01:38.622Z,56.53
2018-10-17T09:04:08.874Z,55.64
2018-10-17T09:06:38.432Z,55.37
2018-10-17T09:09:11.887Z,55.53
2018-10-17T09:11:41.899Z,56.05
2018-10-17T09:14:11.764Z,56.48
2018-10-17T09:16:41.373Z,55.33
2018-10-17T09:19:11.051Z,55.52
2018-10-17T09:21:40.629Z,53.20
2018-10-17T09:24:09.798Z,52.62
2018-10-17T09:26:39.174Z,53.06
2018-10-17T09:29:08.520Z,52.71
2018-10-17T09:31:38.143Z,51.95
2018-10-17T09:34:07.628Z,50.75
2018-10-17T09:36:37.115Z,49.98
2018-10-17T09:39:10.002Z,50.57
2018-10-17T09:41:39.582Z,50.42
2018-10-17T09:44:09.009Z,51.73
2018-10-17T09:46:38.382Z,48.11
2018-10-17T09:49:07.975Z,47.55
2018-10-17T09:51:37.311Z,50.20
2018-10-17T09:54:06.860Z,46.88
2018-10-17T09:56:36.214Z,46.15
2018-10-17T09:59:05.638Z,45.37
2018-10-17T10:01:40.160Z,45.61
2018-10-17T10:04:09.580Z,45.13
2018-10-17T10:06:39.279Z,43.76
2018-10-17T10:09:09.914Z,43.36
2018-10-17T10:11:39.955Z,42.97
2018-10-17T10:14:09.336Z,43.93
2018-10-17T10:16:38.735Z,43.25
2018-10-17T10:19:08.655Z,42.20
2018-10-17T10:21:38.099Z,42.03
2018-10-17T10:24:07.710Z,42.24
2018-10-17T10:26:37.201Z,42.23
2018-10-17T10:29:06.546Z,41.52
2018-10-17T10:31:35.961Z,41.62
2018-10-17T10:34:05.428Z,41.17
2018-10-17T10:36:34.971Z,42.18
2018-10-17T10:39:05.492Z,41.68
2018-10-17T10:41:34.872Z,41.23
2018-10-17T10:44:04.495Z,42.01
2018-10-17T10:46:33.887Z,39.41
2018-10-17T10:49:03.391Z,40.81
2018-10-17T10:51:32.832Z,40.26
2018-10-17T10:54:02.250Z,40.58
2018-10-17T10:56:31.594Z,40.79
2018-10-17T10:59:01.052Z,40.52
2018-10-17T11:01:30.462Z,40.88
2018-10-17T11:03:59.927Z,40.14
2018-10-17T11:06:29.426Z,39.82
2018-10-17T11:08:58.901Z,39.48
2018-10-17T11:11:28.263Z,39.70
2018-10-17T11:13:57.648Z,38.78
2018-10-17T11:16:27.093Z,39.37
2018-10-17T11:18:56.484Z,39.68
2018-10-17T11:21:25.843Z,39.64
2018-10-17T11:23:55.283Z,39.98
2018-10-17T11:26:24.627Z,38.99
2018-10-17T11:28:55.854Z,38.55
2018-10-17T11:31:25.999Z,39.74
2018-10-17T11:33:58.083Z,38.45
2018-10-17T11:36:27.548Z,38.35
2018-10-17T11:38:57.445Z,38.46
2018-10-17T11:41:27.011Z,37.99
2018-10-17T11:43:57.165Z,37.77
2018-10-17T11:46:29.406Z,38.83
2018-10-17T11:49:00.402Z,37.01
2018-10-17T11:51:30.151Z,37.14
2018-10-17T11:54:00.088Z,36.81
2018-10-17T11:56:30.223Z,37.19
2018-10-17T11:58:59.663Z,37.92
2018-10-17T12:01:29.166Z,36.14
2018-10-17T12:03:58.892Z,36.25
2018-10-17T12:06:28.698Z,36.16
2018-10-17T12:08:58.493Z,35.96
2018-10-17T12:11:28.612Z,35.62
2018-10-17T12:13:57.981Z,36.31
2018-10-17T12:16:27.365Z,37.02
2018-10-17T12:18:56.897Z,36.59
2018-10-17T12:21:27.655Z,37.60
2018-10-17T12:23:57.940Z,36.90
2018-10-17T12:26:27.900Z,36.82
2018-10-17T12:28:57.819Z,39.23
2018-10-17T12:31:27.438Z,37.69
2018-10-17T12:33:57.460Z,37.58
2018-10-17T12:36:27.171Z,37.31
2018-10-17T12:38:57.082Z,36.62
2018-10-17T12:41:26.769Z,38.14
2018-10-17T12:43:56.484Z,37.06
2018-10-17T12:46:26.205Z,36.75
2018-10-17T12:48:56.788Z,36.83
2018-10-17T12:51:26.520Z,35.25
2018-10-17T12:53:56.281Z,36.09
2018-10-17T12:56:25.983Z,35.76
2018-10-17T12:58:55.765Z,35.78
2018-10-17T13:01:26.265Z,34.86
2018-10-17T13:03:55.984Z,35.64
2018-10-17T13:06:25.613Z,38.20
2018-10-17T13:08:55.411Z,37.11
2018-10-17T13:11:25.117Z,38.90
2018-10-17T13:13:54.819Z,38.02
2018-10-17T13:16:24.688Z,39.57
2018-10-17T13:18:54.369Z,41.07
2018-10-17T13:21:24.034Z,40.37
2018-10-17T13:23:53.800Z,40.62
2018-10-17T13:26:23.517Z,40.47
2018-10-17T13:28:53.215Z,40.59
2018-10-17T13:31:23.105Z,39.97
2018-10-17T13:33:52.956Z,39.32
2018-10-17T13:36:22.755Z,38.64
2018-10-17T13:38:52.287Z,38.96
2018-10-17T13:41:21.936Z,38.00
2018-10-17T13:43:51.521Z,37.80
2018-10-17T13:46:21.336Z,38.60
2018-10-17T13:48:50.930Z,38.19
2018-10-17T13:51:20.376Z,39.32
2018-10-17T13:53:50.108Z,40.50
2018-10-17T13:56:19.625Z,39.29
2018-10-17T13:58:49.395Z,40.21
2018-10-17T14:01:19.148Z,39.52
2018-10-17T14:03:48.832Z,40.14
2018-10-17T14:06:18.772Z,40.20
2018-10-17T14:08:48.851Z,38.94
2018-10-17T14:11:18.594Z,39.96
2018-10-17T14:13:48.166Z,40.08
2018-10-17T14:16:17.802Z,40.38
2018-10-17T14:18:47.806Z,40.97
2018-10-17T14:21:17.374Z,40.78
2018-10-17T14:23:46.989Z,42.17
2018-10-17T14:26:16.540Z,42.18
2018-10-17T14:28:46.298Z,43.12
2018-10-17T14:31:15.924Z,43.51
2018-10-17T14:33:46.342Z,43.30
2018-10-17T14:36:15.940Z,43.18
2018-10-17T14:38:45.568Z,43.33
2018-10-17T14:41:15.393Z,44.00
2018-10-17T14:43:45.071Z,43.81
2018-10-17T14:46:14.803Z,43.76
2018-10-17T14:48:44.474Z,42.89
2018-10-17T14:51:14.353Z,44.33
2018-10-17T14:53:44.044Z,44.21
2018-10-17T14:56:13.963Z,44.70
2018-10-17T14:58:43.597Z,44.73
2018-10-17T15:01:13.271Z,45.15
2018-10-17T15:03:43.107Z,44.68
2018-10-17T15:06:12.763Z,45.82
2018-10-17T15:08:42.563Z,46.50
2018-10-17T15:11:12.308Z,47.09
2018-10-17T15:13:42.039Z,47.11
2018-10-17T15:16:12.030Z,47.25
2018-10-17T15:18:41.639Z,46.82
2018-10-17T15:21:11.289Z,47.19
2018-10-17T15:23:41.098Z,47.85
2018-10-17T15:26:10.748Z,47.52
2018-10-17T15:28:40.328Z,47.21
2018-10-17T15:31:10.009Z,47.59
2018-10-17T15:33:39.679Z,47.84
2018-10-17T15:36:09.265Z,47.57
2018-10-17T15:38:38.832Z,48.58
2018-10-17T15:41:08.345Z,47.74
2018-10-17T15:43:37.955Z,48.05
2018-10-17T15:46:08.149Z,48.44
2018-10-17T15:48:37.722Z,49.35
2018-10-17T15:51:07.544Z,49.39
2018-10-17T15:53:38.100Z,50.27
2018-10-17T15:56:07.579Z,50.50
2018-10-17T15:58:37.703Z,52.19
2018-10-17T16:01:07.319Z,52.21
2018-10-17T16:03:36.926Z,53.39
2018-10-17T16:06:06.880Z,53.17
2018-10-17T16:08:36.542Z,53.49
2018-10-17T16:11:09.417Z,53.86
2018-10-17T16:13:39.232Z,54.19
2018-10-17T16:16:08.909Z,54.74
2018-10-17T16:18:38.529Z,54.92
2018-10-17T16:21:08.415Z,55.55
2018-10-17T16:23:37.959Z,56.66
2018-10-17T16:26:07.750Z,56.48
2018-10-17T16:28:37.566Z,57.58
2018-10-17T16:31:07.371Z,57.48
2018-10-17T16:33:36.940Z,58.15
2018-10-17T16:36:06.960Z,58.36
2018-10-17T16:38:36.482Z,59.59
2018-10-17T16:41:07.292Z,59.16
2018-10-17T16:43:37.050Z,59.30
2018-10-17T16:46:06.783Z,60.29
2018-10-17T16:48:36.483Z,60.13
2018-10-17T16:51:06.785Z,61.03
2018-10-17T16:53:36.445Z,61.05
2018-10-17T16:56:07.735Z,61.49
2018-10-17T16:58:37.381Z,61.76
2018-10-17T17:01:07.403Z,62.80
2018-10-17T17:03:37.072Z,62.25
2018-10-17T17:06:07.007Z,62.62
2018-10-17T17:08:36.757Z,62.94
2018-10-17T17:11:07.441Z,63.51
2018-10-17T17:13:37.408Z,63.76
2018-10-17T17:16:08.260Z,64.18
2018-10-17T17:18:37.912Z,64.21
2018-10-17T17:21:08.109Z,65.34
2018-10-17T17:23:37.671Z,65.20
2018-10-17T17:26:07.252Z,65.21
2018-10-17T17:28:37.007Z,66.53
2018-10-17T17:31:07.492Z,66.18
2018-10-17T17:33:37.852Z,66.45
2018-10-17T17:36:07.685Z,66.74
2018-10-17T17:38:37.396Z,67.87
2018-10-17T17:41:07.109Z,68.53
2018-10-17T17:43:36.963Z,67.91
2018-10-17T17:46:06.895Z,69.00
2018-10-17T17:48:36.501Z,69.72
2018-10-17T17:54:20.916Z,70.24
2018-10-17T17:56:50.483Z,71.33
2018-10-17T18:02:01.125Z,72.16
2018-10-17T18:04:31.144Z,72.35
2018-10-17T18:07:00.841Z,71.75
2018-10-17T18:09:30.480Z,72.44
2018-10-17T18:11:59.910Z,73.43
2018-10-17T18:14:29.444Z,73.87
2018-10-17T18:16:58.948Z,74.11
2018-10-17T18:19:28.367Z,73.44
2018-10-17T18:21:57.933Z,74.07
2018-10-17T18:24:27.274Z,74.18
2018-10-17T18:26:56.761Z,74.93
2018-10-17T18:29:26.192Z,75.37
2018-10-17T18:31:56.102Z,75.59
2018-10-17T18:34:25.575Z,75.55
2018-10-17T18:38:21.864Z,75.77
2018-10-17T18:40:51.536Z,75.80
2018-10-17T18:43:20.992Z,76.38
2018-10-17T18:45:50.627Z,76.93
2018-10-17T18:48:20.501Z,76.23
2018-10-17T18:50:50.033Z,77.26
2018-10-17T18:53:19.716Z,76.88
2018-10-17T18:55:49.573Z,78.03
2018-10-17T18:58:19.156Z,77.90
2018-10-17T19:00:48.761Z,78.26
2018-10-17T19:03:18.268Z,78.82
2018-10-17T19:05:48.191Z,78.43
2018-10-17T19:08:17.749Z,78.70
2018-10-17T19:10:47.081Z,78.58
2018-10-17T19:13:17.400Z,79.49
2018-10-17T19:15:46.917Z,79.06
2018-10-17T19:18:16.717Z,79.55
2018-10-17T19:20:47.539Z,79.76
2018-10-17T19:23:17.071Z,80.00
2018-10-17T19:25:46.585Z,79.61
2018-10-17T19:28:16.474Z,80.05
2018-10-17T19:30:46.110Z,79.87
2018-10-17T19:33:15.951Z,79.82
2018-10-17T19:35:48.047Z,80.64
2018-10-17T19:38:18.064Z,79.98
2018-10-17T19:40:47.851Z,80.82
2018-10-17T19:43:17.410Z,80.56
2018-10-17T19:45:47.044Z,81.43
2018-10-17T19:48:17.066Z,81.06
2018-10-17T19:50:46.759Z,81.76
2018-10-17T19:53:16.715Z,82.08
2018-10-17T19:55:46.375Z,81.57
2018-10-17T19:58:15.897Z,81.70
2018-10-17T20:00:45.306Z,82.25
2018-10-17T20:03:14.834Z,81.19
2018-10-17T20:05:44.259Z,82.50
2018-10-17T20:08:14.507Z,82.43
2018-10-17T20:10:43.957Z,82.76
2018-10-17T20:13:13.498Z,83.10
2018-10-17T20:15:43.213Z,83.15
2018-10-17T20:18:13.271Z,83.46
2018-10-17T20:20:42.753Z,83.33
2018-10-17T20:23:12.252Z,84.06
2018-10-17T20:25:41.778Z,83.44
2018-10-17T20:28:13.107Z,83.71
2018-10-17T20:30:42.628Z,83.30
2018-10-17T20:33:12.829Z,84.32
2018-10-17T20:35:42.325Z,84.25
2018-10-17T20:38:11.788Z,84.70
2018-10-17T20:40:41.214Z,84.34
2018-10-17T20:43:11.005Z,84.71
2018-10-17T20:45:40.589Z,85.49
2018-10-17T20:48:10.017Z,85.16
2018-10-17T20:50:39.498Z,85.93
2018-10-17T20:53:09.017Z,85.40
2018-10-17T20:55:38.583Z,86.28
2018-10-17T20:58:08.056Z,86.12
2018-10-17T21:00:37.540Z,86.50
2018-10-17T21:03:07.027Z,87.10
2018-10-17T21:05:36.566Z,87.05
2018-10-17T21:08:06.411Z,87.63
2018-10-17T21:10:35.829Z,87.78
2018-10-17T21:13:05.501Z,88.08
2018-10-17T21:15:35.193Z,87.34
2018-10-17T21:18:04.669Z,87.27
2018-10-17T21:20:34.221Z,88.08
2018-10-17T21:23:03.748Z,88.70
2018-10-17T21:25:33.248Z,88.30
2018-10-17T21:28:02.812Z,88.87
2018-10-17T21:30:32.452Z,88.61
2018-10-17T21:33:01.966Z,89.28
2018-10-17T21:35:31.436Z,89.35
2018-10-17T21:38:01.507Z,89.65
2018-10-17T21:40:31.607Z,90.01
2018-10-17T21:43:01.636Z,90.53
2018-10-17T21:45:31.314Z,90.54
2018-10-17T21:48:01.007Z,89.71
2018-10-17T21:50:30.647Z,90.70
2018-10-17T21:53:00.281Z,90.57
2018-10-17T21:55:29.874Z,91.06
2018-10-17T21:57:59.499Z,90.58
2018-10-17T22:00:29.132Z,90.57
2018-10-17T22:02:58.883Z,90.95
2018-10-17T22:05:28.822Z,91.71
2018-10-17T22:07:58.531Z,91.39
2018-10-17T22:10:28.103Z,91.95
2018-10-17T22:12:58.807Z,91.71
2018-10-17T22:15:28.349Z,92.73
2018-10-17T22:17:58.063Z,92.96
2018-10-17T22:20:27.788Z,93.54
2018-10-17T22:22:57.396Z,93.88
2018-10-17T22:25:27.143Z,93.15
2018-10-17T22:27:56.796Z,93.50
2018-10-17T22:30:26.328Z,94.00
2018-10-17T22:32:55.991Z,94.59
2018-10-17T22:35:25.957Z,94.27
2018-10-17T22:37:56.247Z,94.54
2018-10-17T22:40:26.997Z,94.69
2018-10-17T22:42:56.598Z,95.65
2018-10-17T22:45:26.258Z,95.96
2018-10-17T22:47:56.022Z,96.12
2018-10-17T22:50:26.329Z,96.08
2018-10-17T22:52:55.858Z,96.37
2018-10-17T22:55:25.568Z,96.53
2018-10-17T22:57:55.099Z,96.71
2018-10-17T23:00:24.585Z,96.63
2018-10-17T23:02:54.305Z,97.18
2018-10-17T23:05:25.102Z,97.13
2018-10-17T23:07:54.687Z,97.36
2018-10-17T23:10:24.243Z,97.06
2018-10-17T23:12:53.750Z,97.39
2018-10-17T23:15:23.344Z,97.40
2018-10-17T23:17:53.277Z,97.51
2018-10-17T23:20:22.821Z,97.58
2018-10-17T23:22:52.304Z,97.24
2018-10-17T23:25:21.833Z,97.11
2018-10-17T23:27:51.399Z,97.91
2018-10-17T23:30:21.419Z,98.16
2018-10-17T23:32:50.975Z,98.44
2018-10-17T23:35:21.211Z,97.85
2018-10-17T23:37:50.695Z,98.19
2018-10-17T23:40:21.248Z,98.95
2018-10-17T23:42:50.694Z,98.26
2018-10-17T23:45:20.240Z,98.24
2018-10-17T23:47:49.910Z,98.98
2018-10-17T23:50:19.562Z,98.22
2018-10-17T23:52:49.095Z,98.14
2018-10-17T23:55:18.828Z,98.47
2018-10-17T23:57:48.321Z,98.69
